Airfield :
LOGIN :

Register | Disclaimer

   EN    FR    IT 

 










Legend :    VFR   Marginal VFR   IFR   Intensive IFR   Very Intensive IFR
Visi :
Ceiling :
>= 8 km
>= 3000ft
5 to 8 km
1000 to 3000 ft
1500m to 5 km
500 to 1000 ft
800 to 1500m
200 to 500 ft
< 800m
< 200 ft
Symbols :   Thunderstorms  Fog  Heavy snow  Heavy precipitations  Wind > 20 kt
SIGMETs :     Misc.  Thunderstorms  Icing  Turbulence  Mountain Waves  Volcanic Ashes






- Airport Elevation : 39 ft
- IATA code : ANR


EBAW - Anvers / Antwerpen Deurne

CURRENT METAR :
  • 101120Z 07007KT 8000 -RA BKN007 OVC009 07/06 Q1012 NOSIG

EXPIRED METARs :
  • 101050Z 07008KT 8000 -RA BKN007 OVC009 07/06 Q1012 NOSIG
  • 101020Z 08008KT 8000 -RA BKN007 07/06 Q1013 NOSIG
  • 100950Z 08007KT 9999 -RA BKN008 07/05 Q1013 NOSIG
  • 100920Z 08007KT 9999 -RA BKN008 07/05 Q1013 NOSIG
  • 100850Z 07007KT 9999 -RA BKN009 07/05 Q1013 NOSIG

TAF TAF EBAW
Valid from the 10 at 12:00 until the 10 at 21:00 UTC


101110Z 1012/1021 06008KT 7000 -RA SCT007 BKN012
TEMPO 1012/1021 4000 RA RADZ SCT004 BKN007
PROB40
TEMPO 1018/1021 2500 RA RADZ SCT002 BKN004



MET'MAP, your aeronautical weather chart ! - Copyright ORBIFLY December 2007 - Disclaimer

ORBIFLY MET'MAP TEAM :

Programming & Development : Alexandra Zaïnal
Concept & original design : Baudouin d'Aumeries
Assistance for programming : Marc-Olivier Méhu
Technical & hardware support : Manuel Goepfert

Contact : metmap@orbifly.com




SOURCES & CREDITS :

   NOAA